sensor_id;sensor_type;location;lat;lon;timestamp;temperature;humidity
69006;SHT31;56061;51.748;19.620;2024-02-23T00:01:06;8.02;77.61
69006;SHT31;56061;51.748;19.620;2024-02-23T00:03:33;8.05;77.63
69006;SHT31;56061;51.748;19.620;2024-02-23T00:06:02;8.07;77.62
69006;SHT31;56061;51.748;19.620;2024-02-23T00:08:29;8.09;77.59
69006;SHT31;56061;51.748;19.620;2024-02-23T00:10:55;8.09;77.54
69006;SHT31;56061;51.748;19.620;2024-02-23T00:13:22;8.11;77.53
69006;SHT31;56061;51.748;19.620;2024-02-23T00:15:48;8.12;77.58
69006;SHT31;56061;51.748;19.620;2024-02-23T00:18:15;8.14;77.56
69006;SHT31;56061;51.748;19.620;2024-02-23T00:20:43;8.15;77.60
69006;SHT31;56061;51.748;19.620;2024-02-23T00:23:10;8.16;77.60
69006;SHT31;56061;51.748;19.620;2024-02-23T00:25:37;8.17;77.63
69006;SHT31;56061;51.748;19.620;2024-02-23T00:28:03;8.16;77.59
69006;SHT31;56061;51.748;19.620;2024-02-23T00:30:30;8.17;77.62
69006;SHT31;56061;51.748;19.620;2024-02-23T00:32:57;8.16;77.60
69006;SHT31;56061;51.748;19.620;2024-02-23T00:35:23;8.15;77.62
69006;SHT31;56061;51.748;19.620;2024-02-23T00:37:50;8.15;77.68
69006;SHT31;56061;51.748;19.620;2024-02-23T00:40:16;8.15;77.72
69006;SHT31;56061;51.748;19.620;2024-02-23T00:42:43;8.14;77.80
69006;SHT31;56061;51.748;19.620;2024-02-23T00:45:09;8.14;77.81
69006;SHT31;56061;51.748;19.620;2024-02-23T00:47:36;8.14;77.79
69006;SHT31;56061;51.748;19.620;2024-02-23T00:50:04;8.14;77.88
69006;SHT31;56061;51.748;19.620;2024-02-23T00:52:31;8.15;78.00
69006;SHT31;56061;51.748;19.620;2024-02-23T00:54:58;8.16;78.03
69006;SHT31;56061;51.748;19.620;2024-02-23T00:57:25;8.16;78.09
69006;SHT31;56061;51.748;19.620;2024-02-23T00:59:56;8.17;78.10
69006;SHT31;56061;51.748;19.620;2024-02-23T01:02:23;8.18;78.10
69006;SHT31;56061;51.748;19.620;2024-02-23T01:04:50;8.19;78.10
69006;SHT31;56061;51.748;19.620;2024-02-23T01:07:17;8.21;78.13
69006;SHT31;56061;51.748;19.620;2024-02-23T01:09:43;8.22;78.20
69006;SHT31;56061;51.748;19.620;2024-02-23T01:12:10;8.24;78.22
69006;SHT31;56061;51.748;19.620;2024-02-23T01:14:36;8.26;78.24
69006;SHT31;56061;51.748;19.620;2024-02-23T01:17:03;8.26;78.32
69006;SHT31;56061;51.748;19.620;2024-02-23T01:19:29;8.28;78.36
69006;SHT31;56061;51.748;19.620;2024-02-23T01:21:56;8.29;78.41
69006;SHT31;56061;51.748;19.620;2024-02-23T01:24:26;8.31;78.49
69006;SHT31;56061;51.748;19.620;2024-02-23T01:26:55;8.31;78.54
69006;SHT31;56061;51.748;19.620;2024-02-23T01:29:22;8.33;78.61
69006;SHT31;56061;51.748;19.620;2024-02-23T01:31:49;8.35;78.70
69006;SHT31;56061;51.748;19.620;2024-02-23T01:34:15;8.37;78.79
69006;SHT31;56061;51.748;19.620;2024-02-23T01:36:42;8.37;78.91
69006;SHT31;56061;51.748;19.620;2024-02-23T01:39:10;8.37;79.04
69006;SHT31;56061;51.748;19.620;2024-02-23T01:41:37;8.37;79.19
69006;SHT31;56061;51.748;19.620;2024-02-23T01:44:04;8.37;79.32
69006;SHT31;56061;51.748;19.620;2024-02-23T01:46:31;8.37;79.46
69006;SHT31;56061;51.748;19.620;2024-02-23T01:48:58;8.38;79.71
69006;SHT31;56061;51.748;19.620;2024-02-23T01:51:25;8.39;79.85
69006;SHT31;56061;51.748;19.620;2024-02-23T01:53:52;8.39;80.06
69006;SHT31;56061;51.748;19.620;2024-02-23T01:56:19;8.40;80.18
69006;SHT31;56061;51.748;19.620;2024-02-23T01:58:47;8.40;80.27
69006;SHT31;56061;51.748;19.620;2024-02-23T02:01:14;8.41;80.37
69006;SHT31;56061;51.748;19.620;2024-02-23T02:03:40;8.43;80.51
69006;SHT31;56061;51.748;19.620;2024-02-23T02:06:09;8.44;80.65
69006;SHT31;56061;51.748;19.620;2024-02-23T02:08:36;8.45;80.77
69006;SHT31;56061;51.748;19.620;2024-02-23T02:11:04;8.46;80.99
69006;SHT31;56061;51.748;19.620;2024-02-23T02:13:31;8.46;81.12
69006;SHT31;56061;51.748;19.620;2024-02-23T02:15:59;8.45;81.36
69006;SHT31;56061;51.748;19.620;2024-02-23T02:18:25;8.45;81.56
69006;SHT31;56061;51.748;19.620;2024-02-23T02:20:55;8.44;81.74
69006;SHT31;56061;51.748;19.620;2024-02-23T02:23:23;8.43;81.86
69006;SHT31;56061;51.748;19.620;2024-02-23T02:25:56;8.43;82.06
69006;SHT31;56061;51.748;19.620;2024-02-23T02:28:24;8.42;82.21
69006;SHT31;56061;51.748;19.620;2024-02-23T02:30:51;8.42;82.28
69006;SHT31;56061;51.748;19.620;2024-02-23T02:33:22;8.40;82.46
69006;SHT31;56061;51.748;19.620;2024-02-23T02:35:49;8.39;82.61
69006;SHT31;56061;51.748;19.620;2024-02-23T02:38:16;8.38;82.81
69006;SHT31;56061;51.748;19.620;2024-02-23T02:40:43;8.37;82.99
69006;SHT31;56061;51.748;19.620;2024-02-23T02:43:10;8.35;83.05
69006;SHT31;56061;51.748;19.620;2024-02-23T02:45:37;8.35;83.13
69006;SHT31;56061;51.748;19.620;2024-02-23T02:48:04;8.34;83.30
69006;SHT31;56061;51.748;19.620;2024-02-23T02:50:31;8.33;83.42
69006;SHT31;56061;51.748;19.620;2024-02-23T02:52:58;8.32;83.62
69006;SHT31;56061;51.748;19.620;2024-02-23T02:55:23;8.32;83.65
69006;SHT31;56061;51.748;19.620;2024-02-23T02:57:50;8.32;83.69
69006;SHT31;56061;51.748;19.620;2024-02-23T03:00:16;8.32;83.82
69006;SHT31;56061;51.748;19.620;2024-02-23T03:02:43;8.32;83.96
69006;SHT31;56061;51.748;19.620;2024-02-23T03:05:09;8.32;83.98
69006;SHT31;56061;51.748;19.620;2024-02-23T03:07:36;8.33;84.14
69006;SHT31;56061;51.748;19.620;2024-02-23T03:10:03;8.34;84.16
69006;SHT31;56061;51.748;19.620;2024-02-23T03:12:30;8.36;84.16
69006;SHT31;56061;51.748;19.620;2024-02-23T03:14:56;8.37;84.17
69006;SHT31;56061;51.748;19.620;2024-02-23T03:17:23;8.39;84.22
69006;SHT31;56061;51.748;19.620;2024-02-23T03:19:50;8.40;84.25
69006;SHT31;56061;51.748;19.620;2024-02-23T03:22:17;8.41;84.25
69006;SHT31;56061;51.748;19.620;2024-02-23T03:24:43;8.43;84.37
69006;SHT31;56061;51.748;19.620;2024-02-23T03:27:10;8.45;84.37
69006;SHT31;56061;51.748;19.620;2024-02-23T03:29:38;8.47;84.45
69006;SHT31;56061;51.748;19.620;2024-02-23T03:32:05;8.46;84.61
69006;SHT31;56061;51.748;19.620;2024-02-23T03:34:33;8.46;84.66
69006;SHT31;56061;51.748;19.620;2024-02-23T03:37:00;8.46;84.77
69006;SHT31;56061;51.748;19.620;2024-02-23T03:39:28;8.47;84.78
69006;SHT31;56061;51.748;19.620;2024-02-23T03:41:55;8.46;84.90
69006;SHT31;56061;51.748;19.620;2024-02-23T03:44:21;8.46;84.98
69006;SHT31;56061;51.748;19.620;2024-02-23T03:46:48;8.45;85.17
69006;SHT31;56061;51.748;19.620;2024-02-23T03:49:16;8.44;85.14
69006;SHT31;56061;51.748;19.620;2024-02-23T03:51:42;8.43;85.18
69006;SHT31;56061;51.748;19.620;2024-02-23T03:54:09;8.43;85.31
69006;SHT31;56061;51.748;19.620;2024-02-23T03:56:39;8.43;85.32
69006;SHT31;56061;51.748;19.620;2024-02-23T03:59:09;8.42;85.41
69006;SHT31;56061;51.748;19.620;2024-02-23T04:01:39;8.40;85.43
69006;SHT31;56061;51.748;19.620;2024-02-23T04:04:06;8.39;85.50
69006;SHT31;56061;51.748;19.620;2024-02-23T04:06:33;8.39;85.50
69006;SHT31;56061;51.748;19.620;2024-02-23T04:09:01;8.38;85.62
69006;SHT31;56061;51.748;19.620;2024-02-23T04:11:31;8.35;85.73
69006;SHT31;56061;51.748;19.620;2024-02-23T04:13:58;8.34;85.93
69006;SHT31;56061;51.748;19.620;2024-02-23T04:16:26;8.32;86.02
69006;SHT31;56061;51.748;19.620;2024-02-23T04:18:53;8.29;86.03
69006;SHT31;56061;51.748;19.620;2024-02-23T04:21:20;8.29;86.01
69006;SHT31;56061;51.748;19.620;2024-02-23T04:23:47;8.28;86.07
69006;SHT31;56061;51.748;19.620;2024-02-23T04:26:14;8.26;86.11
69006;SHT31;56061;51.748;19.620;2024-02-23T04:28:41;8.25;86.18
69006;SHT31;56061;51.748;19.620;2024-02-23T04:31:08;8.25;86.17
69006;SHT31;56061;51.748;19.620;2024-02-23T04:33:36;8.25;86.31
69006;SHT31;56061;51.748;19.620;2024-02-23T04:36:04;8.23;86.32
69006;SHT31;56061;51.748;19.620;2024-02-23T04:38:32;8.23;86.34
69006;SHT31;56061;51.748;19.620;2024-02-23T04:41:02;8.23;86.34
69006;SHT31;56061;51.748;19.620;2024-02-23T04:43:25;8.22;86.34
69006;SHT31;56061;51.748;19.620;2024-02-23T04:45:52;8.22;86.36
69006;SHT31;56061;51.748;19.620;2024-02-23T04:48:18;8.22;86.36
69006;SHT31;56061;51.748;19.620;2024-02-23T04:50:45;8.21;86.37
69006;SHT31;56061;51.748;19.620;2024-02-23T04:53:11;8.20;86.45
69006;SHT31;56061;51.748;19.620;2024-02-23T04:55:38;8.19;86.47
69006;SHT31;56061;51.748;19.620;2024-02-23T04:58:05;8.19;86.50
69006;SHT31;56061;51.748;19.620;2024-02-23T05:00:32;8.18;86.56
69006;SHT31;56061;51.748;19.620;2024-02-23T05:03:01;8.17;86.57
69006;SHT31;56061;51.748;19.620;2024-02-23T05:05:30;8.17;86.57
69006;SHT31;56061;51.748;19.620;2024-02-23T05:07:58;8.16;86.62
69006;SHT31;56061;51.748;19.620;2024-02-23T05:10:24;8.15;86.57
69006;SHT31;56061;51.748;19.620;2024-02-23T05:12:50;8.15;86.61
69006;SHT31;56061;51.748;19.620;2024-02-23T05:15:17;8.15;86.66
69006;SHT31;56061;51.748;19.620;2024-02-23T05:17:43;8.14;86.63
69006;SHT31;56061;51.748;19.620;2024-02-23T05:20:10;8.13;86.62
69006;SHT31;56061;51.748;19.620;2024-02-23T05:22:38;8.13;86.59
69006;SHT31;56061;51.748;19.620;2024-02-23T05:25:05;8.13;86.63
69006;SHT31;56061;51.748;19.620;2024-02-23T05:27:33;8.12;86.65
69006;SHT31;56061;51.748;19.620;2024-02-23T05:29:59;8.12;86.60
69006;SHT31;56061;51.748;19.620;2024-02-23T05:32:26;8.13;86.58
69006;SHT31;56061;51.748;19.620;2024-02-23T05:34:52;8.11;86.53
69006;SHT31;56061;51.748;19.620;2024-02-23T05:37:20;8.12;86.56
69006;SHT31;56061;51.748;19.620;2024-02-23T05:39:47;8.12;86.57
69006;SHT31;56061;51.748;19.620;2024-02-23T05:42:13;8.12;86.54
69006;SHT31;56061;51.748;19.620;2024-02-23T05:44:43;8.13;86.51
69006;SHT31;56061;51.748;19.620;2024-02-23T05:47:11;8.13;86.57
69006;SHT31;56061;51.748;19.620;2024-02-23T05:49:40;8.14;86.57
69006;SHT31;56061;51.748;19.620;2024-02-23T05:52:06;8.15;86.51
69006;SHT31;56061;51.748;19.620;2024-02-23T05:54:33;8.15;86.54
69006;SHT31;56061;51.748;19.620;2024-02-23T05:56:59;8.16;86.54
69006;SHT31;56061;51.748;19.620;2024-02-23T05:59:27;8.16;86.51
69006;SHT31;56061;51.748;19.620;2024-02-23T06:01:54;8.18;86.50
69006;SHT31;56061;51.748;19.620;2024-02-23T06:04:23;8.18;86.51
69006;SHT31;56061;51.748;19.620;2024-02-23T06:06:50;8.18;86.52
69006;SHT31;56061;51.748;19.620;2024-02-23T06:09:17;8.19;86.54
69006;SHT31;56061;51.748;19.620;2024-02-23T06:11:45;8.21;86.50
69006;SHT31;56061;51.748;19.620;2024-02-23T06:14:12;8.22;86.56
69006;SHT31;56061;51.748;19.620;2024-02-23T06:16:39;8.23;86.51
69006;SHT31;56061;51.748;19.620;2024-02-23T06:19:06;8.24;86.49
69006;SHT31;56061;51.748;19.620;2024-02-23T06:21:33;8.25;86.49
69006;SHT31;56061;51.748;19.620;2024-02-23T06:24:00;8.25;86.51
69006;SHT31;56061;51.748;19.620;2024-02-23T06:29:18;8.27;86.58
69006;SHT31;56061;51.748;19.620;2024-02-23T06:31:45;8.28;86.62
69006;SHT31;56061;51.748;19.620;2024-02-23T06:34:15;8.30;86.68
69006;SHT31;56061;51.748;19.620;2024-02-23T06:36:42;8.29;86.69
69006;SHT31;56061;51.748;19.620;2024-02-23T06:39:09;8.31;86.65
69006;SHT31;56061;51.748;19.620;2024-02-23T06:41:37;8.31;86.70
69006;SHT31;56061;51.748;19.620;2024-02-23T06:44:07;8.32;86.74
69006;SHT31;56061;51.748;19.620;2024-02-23T06:46:34;8.32;86.78
69006;SHT31;56061;51.748;19.620;2024-02-23T06:51:52;8.35;86.79
69006;SHT31;56061;51.748;19.620;2024-02-23T06:54:19;8.37;86.79
69006;SHT31;56061;51.748;19.620;2024-02-23T06:56:46;8.38;86.79
69006;SHT31;56061;51.748;19.620;2024-02-23T06:59:13;8.41;86.84
69006;SHT31;56061;51.748;19.620;2024-02-23T07:01:49;8.42;86.84
69006;SHT31;56061;51.748;19.620;2024-02-23T07:04:17;8.44;86.88
69006;SHT31;56061;51.748;19.620;2024-02-23T07:06:44;8.45;86.91
69006;SHT31;56061;51.748;19.620;2024-02-23T07:09:11;8.47;86.90
69006;SHT31;56061;51.748;19.620;2024-02-23T07:11:47;8.49;86.90
69006;SHT31;56061;51.748;19.620;2024-02-23T07:14:13;8.51;86.87
69006;SHT31;56061;51.748;19.620;2024-02-23T07:16:43;8.51;86.89
69006;SHT31;56061;51.748;19.620;2024-02-23T07:19:09;8.53;86.90
69006;SHT31;56061;51.748;19.620;2024-02-23T07:21:42;8.54;86.91
69006;SHT31;56061;51.748;19.620;2024-02-23T07:24:09;8.55;86.92
69006;SHT31;56061;51.748;19.620;2024-02-23T07:26:36;8.56;86.96
69006;SHT31;56061;51.748;19.620;2024-02-23T07:29:02;8.58;86.97
69006;SHT31;56061;51.748;19.620;2024-02-23T07:31:29;8.58;87.01
69006;SHT31;56061;51.748;19.620;2024-02-23T07:33:56;8.60;87.04
69006;SHT31;56061;51.748;19.620;2024-02-23T07:36:23;8.64;87.00
69006;SHT31;56061;51.748;19.620;2024-02-23T07:38:49;8.67;87.04
69006;SHT31;56061;51.748;19.620;2024-02-23T07:41:16;8.70;87.01
69006;SHT31;56061;51.748;19.620;2024-02-23T07:43:45;8.73;87.01
69006;SHT31;56061;51.748;19.620;2024-02-23T07:46:12;8.76;87.00
69006;SHT31;56061;51.748;19.620;2024-02-23T07:48:45;8.80;86.99
69006;SHT31;56061;51.748;19.620;2024-02-23T07:51:13;8.83;86.99
69006;SHT31;56061;51.748;19.620;2024-02-23T07:53:40;8.85;86.98
69006;SHT31;56061;51.748;19.620;2024-02-23T07:56:07;8.85;87.01
69006;SHT31;56061;51.748;19.620;2024-02-23T07:58:34;8.87;86.98
69006;SHT31;56061;51.748;19.620;2024-02-23T08:01:00;8.87;86.91
69006;SHT31;56061;51.748;19.620;2024-02-23T08:03:41;8.88;86.90
69006;SHT31;56061;51.748;19.620;2024-02-23T08:06:09;8.90;86.89
69006;SHT31;56061;51.748;19.620;2024-02-23T08:08:36;8.93;86.88
69006;SHT31;56061;51.748;19.620;2024-02-23T08:11:03;8.94;86.82
69006;SHT31;56061;51.748;19.620;2024-02-23T08:13:31;8.96;86.83
69006;SHT31;56061;51.748;19.620;2024-02-23T08:16:00;8.97;86.83
69006;SHT31;56061;51.748;19.620;2024-02-23T08:18:27;8.99;86.83
69006;SHT31;56061;51.748;19.620;2024-02-23T08:20:54;9.03;86.80
69006;SHT31;56061;51.748;19.620;2024-02-23T08:23:20;9.04;86.78
69006;SHT31;56061;51.748;19.620;2024-02-23T08:28:27;9.07;86.70
69006;SHT31;56061;51.748;19.620;2024-02-23T08:30:54;9.10;86.63
69006;SHT31;56061;51.748;19.620;2024-02-23T08:33:20;9.10;86.67
69006;SHT31;56061;51.748;19.620;2024-02-23T08:35:47;9.14;86.64
69006;SHT31;56061;51.748;19.620;2024-02-23T08:41:08;9.16;86.45
69006;SHT31;56061;51.748;19.620;2024-02-23T08:43:35;9.21;86.50
69006;SHT31;56061;51.748;19.620;2024-02-23T08:46:02;9.26;86.48
69006;SHT31;56061;51.748;19.620;2024-02-23T08:48:35;9.30;86.41
69006;SHT31;56061;51.748;19.620;2024-02-23T08:51:01;9.35;86.35
69006;SHT31;56061;51.748;19.620;2024-02-23T08:53:28;9.40;86.22
69006;SHT31;56061;51.748;19.620;2024-02-23T08:55:54;9.43;86.11
69006;SHT31;56061;51.748;19.620;2024-02-23T08:58:21;9.47;86.10
69006;SHT31;56061;51.748;19.620;2024-02-23T09:00:54;9.52;86.06
69006;SHT31;56061;51.748;19.620;2024-02-23T09:03:20;9.56;85.95
69006;SHT31;56061;51.748;19.620;2024-02-23T09:05:47;9.59;86.00
69006;SHT31;56061;51.748;19.620;2024-02-23T09:08:14;9.63;85.96
69006;SHT31;56061;51.748;19.620;2024-02-23T09:10:41;9.66;85.90
69006;SHT31;56061;51.748;19.620;2024-02-23T09:13:12;9.69;85.83
69006;SHT31;56061;51.748;19.620;2024-02-23T09:15:38;9.69;85.63
69006;SHT31;56061;51.748;19.620;2024-02-23T09:18:05;9.69;85.60
69006;SHT31;56061;51.748;19.620;2024-02-23T09:20:32;9.69;85.60
69006;SHT31;56061;51.748;19.620;2024-02-23T09:22:58;9.70;85.53
69006;SHT31;56061;51.748;19.620;2024-02-23T09:25:24;9.71;85.54
69006;SHT31;56061;51.748;19.620;2024-02-23T09:27:51;9.71;85.50
69006;SHT31;56061;51.748;19.620;2024-02-23T09:30:22;9.73;85.49
69006;SHT31;56061;51.748;19.620;2024-02-23T09:32:49;9.74;85.43
69006;SHT31;56061;51.748;19.620;2024-02-23T09:35:16;9.75;85.41
69006;SHT31;56061;51.748;19.620;2024-02-23T09:37:42;9.75;85.40
69006;SHT31;56061;51.748;19.620;2024-02-23T09:40:18;9.76;85.40
69006;SHT31;56061;51.748;19.620;2024-02-23T09:42:47;9.77;85.45
69006;SHT31;56061;51.748;19.620;2024-02-23T09:45:26;9.79;85.42
69006;SHT31;56061;51.748;19.620;2024-02-23T09:47:53;9.81;85.40
69006;SHT31;56061;51.748;19.620;2024-02-23T09:50:23;9.84;85.38
69006;SHT31;56061;51.748;19.620;2024-02-23T09:52:51;9.85;85.32
69006;SHT31;56061;51.748;19.620;2024-02-23T09:55:20;9.89;85.39
69006;SHT31;56061;51.748;19.620;2024-02-23T09:57:49;9.91;85.32
69006;SHT31;56061;51.748;19.620;2024-02-23T10:00:23;9.94;85.34
69006;SHT31;56061;51.748;19.620;2024-02-23T10:02:50;9.97;85.36
69006;SHT31;56061;51.748;19.620;2024-02-23T10:05:17;9.98;85.27
69006;SHT31;56061;51.748;19.620;2024-02-23T10:07:45;9.99;85.20
69006;SHT31;56061;51.748;19.620;2024-02-23T10:10:13;10.00;85.12
69006;SHT31;56061;51.748;19.620;2024-02-23T10:12:39;10.02;85.06
69006;SHT31;56061;51.748;19.620;2024-02-23T10:15:12;10.01;85.00
69006;SHT31;56061;51.748;19.620;2024-02-23T10:17:39;10.03;84.87
69006;SHT31;56061;51.748;19.620;2024-02-23T10:20:07;10.05;84.83
69006;SHT31;56061;51.748;19.620;2024-02-23T10:22:35;10.05;84.74
69006;SHT31;56061;51.748;19.620;2024-02-23T10:25:01;10.05;84.67
69006;SHT31;56061;51.748;19.620;2024-02-23T10:27:31;10.05;84.57
69006;SHT31;56061;51.748;19.620;2024-02-23T10:29:58;10.04;84.59
69006;SHT31;56061;51.748;19.620;2024-02-23T10:32:25;10.03;84.53
69006;SHT31;56061;51.748;19.620;2024-02-23T10:34:55;10.06;84.65
69006;SHT31;56061;51.748;19.620;2024-02-23T10:37:26;10.09;84.69
69006;SHT31;56061;51.748;19.620;2024-02-23T10:39:57;10.12;84.61
69006;SHT31;56061;51.748;19.620;2024-02-23T10:42:28;10.15;84.51
69006;SHT31;56061;51.748;19.620;2024-02-23T10:45:00;10.18;84.46
69006;SHT31;56061;51.748;19.620;2024-02-23T10:47:28;10.24;84.52
69006;SHT31;56061;51.748;19.620;2024-02-23T10:50:00;10.31;84.54
69006;SHT31;56061;51.748;19.620;2024-02-23T10:52:51;10.38;84.49
69006;SHT31;56061;51.748;19.620;2024-02-23T10:55:18;10.44;84.37
69006;SHT31;56061;51.748;19.620;2024-02-23T10:57:48;10.47;84.12
69006;SHT31;56061;51.748;19.620;2024-02-23T11:00:17;10.45;83.89
69006;SHT31;56061;51.748;19.620;2024-02-23T11:02:49;10.44;83.80
69006;SHT31;56061;51.748;19.620;2024-02-23T11:05:18;10.47;83.78
69006;SHT31;56061;51.748;19.620;2024-02-23T11:07:46;10.47;83.84
69006;SHT31;56061;51.748;19.620;2024-02-23T11:10:16;10.51;83.98
69006;SHT31;56061;51.748;19.620;2024-02-23T11:12:58;10.52;83.84
69006;SHT31;56061;51.748;19.620;2024-02-23T11:15:28;10.52;83.72
69006;SHT31;56061;51.748;19.620;2024-02-23T11:17:56;10.53;83.73
69006;SHT31;56061;51.748;19.620;2024-02-23T11:20:23;10.55;83.80
69006;SHT31;56061;51.748;19.620;2024-02-23T11:22:57;10.55;83.80
69006;SHT31;56061;51.748;19.620;2024-02-23T11:25:28;10.57;83.77
69006;SHT31;56061;51.748;19.620;2024-02-23T11:27:55;10.59;83.64
69006;SHT31;56061;51.748;19.620;2024-02-23T11:30:22;10.60;83.54
69006;SHT31;56061;51.748;19.620;2024-02-23T11:32:52;10.64;83.52
69006;SHT31;56061;51.748;19.620;2024-02-23T11:35:25;10.66;83.50
69006;SHT31;56061;51.748;19.620;2024-02-23T11:37:54;10.71;83.54
69006;SHT31;56061;51.748;19.620;2024-02-23T11:40:30;10.73;83.56
69006;SHT31;56061;51.748;19.620;2024-02-23T11:45:49;10.74;83.11
69006;SHT31;56061;51.748;19.620;2024-02-23T11:48:17;10.75;83.21
69006;SHT31;56061;51.748;19.620;2024-02-23T11:50:58;10.79;83.18
69006;SHT31;56061;51.748;19.620;2024-02-23T11:53:25;10.80;83.05
69006;SHT31;56061;51.748;19.620;2024-02-23T11:55:53;10.81;83.11
69006;SHT31;56061;51.748;19.620;2024-02-23T11:58:20;10.81;83.02
69006;SHT31;56061;51.748;19.620;2024-02-23T12:00:47;10.79;82.92
69006;SHT31;56061;51.748;19.620;2024-02-23T12:06:06;10.76;82.96
69006;SHT31;56061;51.748;19.620;2024-02-23T12:08:33;10.78;83.07
69006;SHT31;56061;51.748;19.620;2024-02-23T12:11:05;10.79;82.91
69006;SHT31;56061;51.748;19.620;2024-02-23T12:13:40;10.82;82.96
69006;SHT31;56061;51.748;19.620;2024-02-23T12:16:07;10.85;83.00
69006;SHT31;56061;51.748;19.620;2024-02-23T12:18:35;10.87;82.98
69006;SHT31;56061;51.748;19.620;2024-02-23T12:21:05;10.91;82.90
69006;SHT31;56061;51.748;19.620;2024-02-23T12:23:39;10.91;82.86
69006;SHT31;56061;51.748;19.620;2024-02-23T12:26:10;10.94;82.74
69006;SHT31;56061;51.748;19.620;2024-02-23T12:28:40;10.96;82.64
69006;SHT31;56061;51.748;19.620;2024-02-23T12:31:07;10.99;82.69
69006;SHT31;56061;51.748;19.620;2024-02-23T12:33:36;11.02;82.78
69006;SHT31;56061;51.748;19.620;2024-02-23T12:36:10;11.06;82.91
69006;SHT31;56061;51.748;19.620;2024-02-23T12:38:38;11.11;82.88
69006;SHT31;56061;51.748;19.620;2024-02-23T12:41:04;11.14;82.77
69006;SHT31;56061;51.748;19.620;2024-02-23T12:43:31;11.15;82.53
69006;SHT31;56061;51.748;19.620;2024-02-23T12:45:58;11.16;82.44
69006;SHT31;56061;51.748;19.620;2024-02-23T12:48:25;11.18;82.42
69006;SHT31;56061;51.748;19.620;2024-02-23T12:50:51;11.20;82.37
69006;SHT31;56061;51.748;19.620;2024-02-23T12:56:03;11.22;82.35
69006;SHT31;56061;51.748;19.620;2024-02-23T12:58:32;11.23;82.36
69006;SHT31;56061;51.748;19.620;2024-02-23T13:00:58;11.22;82.23
69006;SHT31;56061;51.748;19.620;2024-02-23T13:03:25;11.22;82.05
69006;SHT31;56061;51.748;19.620;2024-02-23T13:05:53;11.18;81.73
69006;SHT31;56061;51.748;19.620;2024-02-23T13:08:21;11.15;81.77
69006;SHT31;56061;51.748;19.620;2024-02-23T13:10:52;11.12;81.62
69006;SHT31;56061;51.748;19.620;2024-02-23T13:13:21;11.08;81.60
69006;SHT31;56061;51.748;19.620;2024-02-23T13:15:48;11.07;81.70
69006;SHT31;56061;51.748;19.620;2024-02-23T13:18:18;11.07;81.71
69006;SHT31;56061;51.748;19.620;2024-02-23T13:20:46;11.06;81.69
69006;SHT31;56061;51.748;19.620;2024-02-23T13:23:19;11.05;81.70
69006;SHT31;56061;51.748;19.620;2024-02-23T13:25:46;11.07;81.74
69006;SHT31;56061;51.748;19.620;2024-02-23T13:28:12;11.12;81.81
69006;SHT31;56061;51.748;19.620;2024-02-23T13:30:39;11.15;81.78
69006;SHT31;56061;51.748;19.620;2024-02-23T13:33:06;11.19;81.65
69006;SHT31;56061;51.748;19.620;2024-02-23T13:35:37;11.22;81.75
69006;SHT31;56061;51.748;19.620;2024-02-23T13:38:10;11.23;81.68
69006;SHT31;56061;51.748;19.620;2024-02-23T13:40:37;11.25;81.68
69006;SHT31;56061;51.748;19.620;2024-02-23T13:43:03;11.25;81.59
69006;SHT31;56061;51.748;19.620;2024-02-23T13:45:30;11.26;81.48
69006;SHT31;56061;51.748;19.620;2024-02-23T13:47:57;11.25;81.50
69006;SHT31;56061;51.748;19.620;2024-02-23T13:50:28;11.26;81.47
69006;SHT31;56061;51.748;19.620;2024-02-23T13:52:55;11.26;81.43
69006;SHT31;56061;51.748;19.620;2024-02-23T13:55:23;11.25;81.46
69006;SHT31;56061;51.748;19.620;2024-02-23T13:57:49;11.23;81.37
69006;SHT31;56061;51.748;19.620;2024-02-23T14:00:17;11.20;81.30
69006;SHT31;56061;51.748;19.620;2024-02-23T14:02:46;11.18;81.24
69006;SHT31;56061;51.748;19.620;2024-02-23T14:05:14;11.16;81.27
69006;SHT31;56061;51.748;19.620;2024-02-23T14:07:45;11.12;81.20
69006;SHT31;56061;51.748;19.620;2024-02-23T14:10:12;11.08;81.23
69006;SHT31;56061;51.748;19.620;2024-02-23T14:12:38;11.06;81.32
69006;SHT31;56061;51.748;19.620;2024-02-23T14:17:41;11.08;81.53
69006;SHT31;56061;51.748;19.620;2024-02-23T14:20:07;11.06;81.40
69006;SHT31;56061;51.748;19.620;2024-02-23T14:22:35;11.04;81.32
69006;SHT31;56061;51.748;19.620;2024-02-23T14:25:02;11.01;81.36
69006;SHT31;56061;51.748;19.620;2024-02-23T14:30:22;10.99;81.62
69006;SHT31;56061;51.748;19.620;2024-02-23T14:32:48;11.01;81.71
69006;SHT31;56061;51.748;19.620;2024-02-23T14:35:15;11.03;81.75
69006;SHT31;56061;51.748;19.620;2024-02-23T14:37:56;11.02;81.68
69006;SHT31;56061;51.748;19.620;2024-02-23T14:40:22;11.01;81.62
69006;SHT31;56061;51.748;19.620;2024-02-23T14:42:49;11.02;81.69
69006;SHT31;56061;51.748;19.620;2024-02-23T14:45:15;11.02;81.66
69006;SHT31;56061;51.748;19.620;2024-02-23T14:47:43;11.01;81.55
69006;SHT31;56061;51.748;19.620;2024-02-23T14:50:17;11.00;81.58
69006;SHT31;56061;51.748;19.620;2024-02-23T14:52:44;11.00;81.70
69006;SHT31;56061;51.748;19.620;2024-02-23T14:55:10;10.97;81.60
69006;SHT31;56061;51.748;19.620;2024-02-23T14:57:38;10.94;81.63
69006;SHT31;56061;51.748;19.620;2024-02-23T15:00:04;10.92;81.80
69006;SHT31;56061;51.748;19.620;2024-02-23T15:02:32;10.93;81.97
69006;SHT31;56061;51.748;19.620;2024-02-23T15:04:59;10.90;81.97
69006;SHT31;56061;51.748;19.620;2024-02-23T15:07:25;10.86;82.03
69006;SHT31;56061;51.748;19.620;2024-02-23T15:09:52;10.83;82.13
69006;SHT31;56061;51.748;19.620;2024-02-23T15:12:18;10.79;82.27
69006;SHT31;56061;51.748;19.620;2024-02-23T15:14:45;10.77;82.37
69006;SHT31;56061;51.748;19.620;2024-02-23T15:17:13;10.77;82.45
69006;SHT31;56061;51.748;19.620;2024-02-23T15:19:39;10.74;82.52
69006;SHT31;56061;51.748;19.620;2024-02-23T15:22:06;10.72;82.74
69006;SHT31;56061;51.748;19.620;2024-02-23T15:24:34;10.72;82.79
69006;SHT31;56061;51.748;19.620;2024-02-23T15:27:00;10.69;82.85
69006;SHT31;56061;51.748;19.620;2024-02-23T15:29:27;10.65;82.91
69006;SHT31;56061;51.748;19.620;2024-02-23T15:31:55;10.64;83.05
69006;SHT31;56061;51.748;19.620;2024-02-23T15:34:21;10.62;83.11
69006;SHT31;56061;51.748;19.620;2024-02-23T15:36:48;10.60;83.13
69006;SHT31;56061;51.748;19.620;2024-02-23T15:39:15;10.55;83.20
69006;SHT31;56061;51.748;19.620;2024-02-23T15:41:41;10.50;83.34
69006;SHT31;56061;51.748;19.620;2024-02-23T15:44:08;10.46;83.46
69006;SHT31;56061;51.748;19.620;2024-02-23T15:46:34;10.44;83.62
69006;SHT31;56061;51.748;19.620;2024-02-23T15:49:01;10.40;83.66
69006;SHT31;56061;51.748;19.620;2024-02-23T15:51:47;10.37;83.76
69006;SHT31;56061;51.748;19.620;2024-02-23T15:54:24;10.34;83.84